To NAV CANADA Home Page Login to a new session Search on AWWS site Feedback and Comments Disclaimer Vers la page française équivalente Tips FAQ What's new on the site To the Forecasts and Observations / NOTAM section To "File a Flight Plan" website Publications and other links Update of the User's profile FIC Telephone Numbers My Weather Data Folder Route Weather Data Regional Weather Data Local Weather Data To the Forecasts and Observations / NOTAM section
Request Generated 09/02/2015 at 18:54:06 UTC . Weather information available at that time is displayed.

METAR/TAF

SUDBURY/ON    

SPECI CYSB 021825Z 22004KT 180V270 6SM BR SCT012 BKN055 24/21 A2998
RMK SC3SC4 SLP150 DENSITY ALT 2300FT=
METAR CYSB 021800Z 25004KT 220V280 5SM BR OVC010 23/20 A2998 RMK SC8
SLP151 DENSITY ALT 2200FT=
METAR CYSB 021700Z 25005KT 5SM BR OVC010 22/20 A2998 RMK SF8 SLP152
DENSITY ALT 2100FT=
METAR CYSB 021600Z 24004KT 4SM BR OVC006 22/20 A2998 RMK SF8 SLP153
DENSITY ALT 2000FT=

TAF AMD CYSB 021714Z 0217/0302 25006KT 4SM BR OVC009 TEMPO 0217/0218
OVC010
BECMG 0218/0220 P6SM NSW SCT012
FM022100 32006KT P6SM FEW020
RMK NXT FCST BY 022000Z=
Your time UTC time
Weather data provided by Environment Canada and NAV CANADA